Terminal Aerodrome Forecast
Issued by NWS

Home | Current Version | Previous Version | Text Only | Print | Product List | Glossary On
Versions: 1 2 3 4 5 6 7 8 9 10 11 12 13 14 15 16 17 18 19
115
FTPA31 PHFO 250520
TAFHKO
TAF
PHKO 250520Z 2506/2606 14008KT P6SM FEW030 SCT060
     FM250900 08006KT P6SM FEW030 SCT060
     FM252000 23010KT P6SM FEW035 SCT060
     FM260100 19009KT P6SM SCT030 BKN050=

USA.gov is the U.S. government's official web portal to all federal, state and local government web resources and services.